createdAt,value
2023-05-25T00:01:34.347Z,85.72
2023-05-25T00:04:05.406Z,86.08
2023-05-25T00:06:33.270Z,87.09
2023-05-25T00:09:01.385Z,87.12
2023-05-25T00:11:29.214Z,87.25
2023-05-25T00:13:56.959Z,87.64
2023-05-25T00:16:25.030Z,88.10
2023-05-25T00:18:53.399Z,88.80
2023-05-25T00:21:21.152Z,89.29
2023-05-25T00:23:48.981Z,89.57
2023-05-25T00:26:16.749Z,89.43
2023-05-25T00:28:44.712Z,89.20
2023-05-25T00:31:12.589Z,89.30
2023-05-25T00:33:40.905Z,88.88
2023-05-25T00:36:09.072Z,88.82
2023-05-25T00:38:36.953Z,88.66
2023-05-25T00:42:08.910Z,88.45
2023-05-25T00:44:36.813Z,89.04
2023-05-25T00:47:05.042Z,89.83
2023-05-25T00:49:35.370Z,89.77
2023-05-25T00:52:04.273Z,89.94
2023-05-25T00:54:33.654Z,90.35
2023-05-25T00:57:04.359Z,90.70
2023-05-25T00:59:40.824Z,90.91
2023-05-25T01:02:16.466Z,90.99
2023-05-25T01:04:53.582Z,91.00
2023-05-25T01:07:33.357Z,91.25
2023-05-25T01:10:04.891Z,92.44
2023-05-25T01:12:37.682Z,92.85
2023-05-25T01:15:06.441Z,93.07
2023-05-25T01:17:38.129Z,92.65
2023-05-25T01:20:11.802Z,92.38
2023-05-25T01:22:45.962Z,92.51
2023-05-25T01:25:22.419Z,92.47
2023-05-25T01:28:21.893Z,92.23
2023-05-25T01:30:51.114Z,92.40
2023-05-25T01:33:20.119Z,91.88
2023-05-25T01:35:48.950Z,91.95
2023-05-25T01:38:18.364Z,91.52
2023-05-25T01:40:46.162Z,91.29
2023-05-25T01:43:14.269Z,91.19
2023-05-25T01:45:42.301Z,91.14
2023-05-25T01:48:27.858Z,91.32
2023-05-25T01:51:02.388Z,91.55
2023-05-25T01:53:36.005Z,91.31
2023-05-25T01:56:09.275Z,91.52
2023-05-25T01:58:45.737Z,91.74
2023-05-25T02:01:16.049Z,92.42
2023-05-25T02:04:35.477Z,93.63
2023-05-25T02:07:05.009Z,94.09
2023-05-25T02:09:32.847Z,94.19
2023-05-25T02:12:01.102Z,93.96
2023-05-25T02:14:28.892Z,94.03
2023-05-25T02:16:57.853Z,93.74
2023-05-25T02:19:25.598Z,93.32
2023-05-25T02:21:53.366Z,93.18
2023-05-25T02:24:24.747Z,92.76
2023-05-25T02:26:52.676Z,92.72
2023-05-25T02:29:20.592Z,91.79
2023-05-25T02:31:48.479Z,91.68
2023-05-25T02:34:16.353Z,91.65
2023-05-25T02:36:45.151Z,91.67
2023-05-25T02:39:13.177Z,92.30
2023-05-25T02:41:41.016Z,92.36
2023-05-25T02:44:08.790Z,92.05
2023-05-25T02:46:36.727Z,91.60
2023-05-25T02:49:05.670Z,91.66
2023-05-25T02:51:33.700Z,91.40
2023-05-25T02:54:01.452Z,91.43
2023-05-25T02:56:29.267Z,91.75
2023-05-25T02:58:57.071Z,91.60
2023-05-25T03:01:25.464Z,92.30
2023-05-25T03:03:53.513Z,93.00
2023-05-25T03:06:23.120Z,92.72
2023-05-25T03:08:51.001Z,91.87
2023-05-25T03:11:18.767Z,91.63
2023-05-25T03:13:46.556Z,91.91
2023-05-25T03:16:14.529Z,91.91
2023-05-25T03:18:43.394Z,91.05
2023-05-25T03:21:11.599Z,90.87
2023-05-25T03:23:39.532Z,90.32
2023-05-25T03:26:07.637Z,91.03
2023-05-25T03:28:35.625Z,91.28
2023-05-25T03:31:04.624Z,91.53
2023-05-25T03:33:33.358Z,91.78
2023-05-25T03:36:01.525Z,91.87
2023-05-25T03:38:29.267Z,92.27
2023-05-25T03:40:57.142Z,92.24
2023-05-25T03:43:24.839Z,92.24
2023-05-25T03:45:52.670Z,92.61
2023-05-25T03:48:20.591Z,92.94
2023-05-25T03:50:48.686Z,92.77
2023-05-25T03:53:16.450Z,92.37
2023-05-25T03:55:44.422Z,92.16
2023-05-25T03:58:13.196Z,92.73
2023-05-25T04:00:42.282Z,92.61
2023-05-25T04:05:17.159Z,91.83
2023-05-25T04:07:46.085Z,91.94
2023-05-25T04:10:14.088Z,91.71
2023-05-25T04:12:41.955Z,90.31
2023-05-25T04:15:10.106Z,90.50
2023-05-25T04:17:40.046Z,90.97
2023-05-25T04:20:11.384Z,90.56
2023-05-25T04:26:58.664Z,89.36
2023-05-25T04:29:27.101Z,89.18
2023-05-25T04:31:55.120Z,89.42
2023-05-25T04:34:23.408Z,89.57
2023-05-25T04:36:51.231Z,89.81
2023-05-25T04:39:21.411Z,89.78
2023-05-25T04:57:53.437Z,86.63
2023-05-25T05:00:22.032Z,86.52
2023-05-25T05:02:50.172Z,85.56
2023-05-25T05:05:18.176Z,84.39
2023-05-25T05:07:46.087Z,83.84
2023-05-25T05:10:15.137Z,84.10
2023-05-25T05:12:42.955Z,84.30
2023-05-25T05:15:11.140Z,84.44
2023-05-25T05:17:39.505Z,84.58
2023-05-25T05:20:08.368Z,84.14
2023-05-25T05:22:37.898Z,83.12
2023-05-25T05:25:07.393Z,83.61
2023-05-25T05:27:35.434Z,82.82
2023-05-25T05:30:04.152Z,83.05
2023-05-25T05:32:32.087Z,83.12
2023-05-25T05:35:03.074Z,84.12
2023-05-25T05:37:30.996Z,85.10
2023-05-25T05:39:59.109Z,85.54
2023-05-25T05:42:27.033Z,85.62
2023-05-25T05:44:57.584Z,85.82
2023-05-25T05:47:25.689Z,85.92
2023-05-25T05:49:53.622Z,84.73
2023-05-25T05:52:22.519Z,84.13
2023-05-25T05:54:50.406Z,83.91
2023-05-25T05:57:18.226Z,84.49
2023-05-25T05:59:46.196Z,84.29
2023-05-25T06:02:14.072Z,83.70
2023-05-25T06:04:41.998Z,83.21
2023-05-25T06:07:10.070Z,83.06
2023-05-25T06:09:37.871Z,83.26
2023-05-25T06:12:06.691Z,82.42
2023-05-25T06:14:34.732Z,82.37
2023-05-25T06:17:02.801Z,82.60
2023-05-25T06:19:31.011Z,82.27
2023-05-25T06:21:58.915Z,81.75
2023-05-25T06:24:26.785Z,82.01
2023-05-25T06:26:54.594Z,81.89
2023-05-25T06:29:22.432Z,82.16
2023-05-25T06:31:51.155Z,82.45
2023-05-25T06:34:18.984Z,83.33
2023-05-25T06:36:47.720Z,84.13
2023-05-25T06:39:15.572Z,83.45
2023-05-25T06:41:43.482Z,82.74
2023-05-25T06:44:11.353Z,81.84
2023-05-25T06:46:40.021Z,81.24
2023-05-25T06:49:08.464Z,81.47
2023-05-25T06:51:37.247Z,80.89
2023-05-25T06:54:07.192Z,80.51
2023-05-25T06:56:35.126Z,79.43
2023-05-25T06:59:09.804Z,78.85
2023-05-25T07:01:39.584Z,78.72
2023-05-25T07:04:07.404Z,78.70
2023-05-25T07:06:35.398Z,78.73
2023-05-25T07:09:03.311Z,78.30
2023-05-25T07:11:31.193Z,78.04
2023-05-25T07:13:59.077Z,77.66
2023-05-25T07:16:27.011Z,77.69
2023-05-25T07:18:55.067Z,77.36
2023-05-25T07:21:22.916Z,76.44
2023-05-25T07:23:50.779Z,75.44
2023-05-25T07:26:21.394Z,75.42
2023-05-25T07:28:49.290Z,75.08
2023-05-25T07:31:54.540Z,74.23
2023-05-25T07:34:22.646Z,74.92
2023-05-25T07:36:50.616Z,75.85
2023-05-25T07:39:19.834Z,75.65
2023-05-25T07:41:47.801Z,75.99
2023-05-25T07:45:42.047Z,74.68
2023-05-25T07:49:21.343Z,74.90
2023-05-25T08:03:44.360Z,73.78
2023-05-25T08:06:15.736Z,73.69
2023-05-25T08:08:45.028Z,73.20
2023-05-25T08:11:13.333Z,71.69
2023-05-25T08:13:41.245Z,70.44
2023-05-25T08:16:42.943Z,69.17
2023-05-25T08:20:08.977Z,68.69
2023-05-25T08:23:48.086Z,69.45
2023-05-25T08:26:34.357Z,69.49
2023-05-25T08:29:04.768Z,69.00
2023-05-25T08:31:33.469Z,67.02
2023-05-25T08:34:01.721Z,65.63
2023-05-25T08:36:29.738Z,65.20
2023-05-25T08:39:00.517Z,65.29
2023-05-25T08:41:29.863Z,64.27
2023-05-25T08:43:58.226Z,63.13
2023-05-25T08:46:33.608Z,62.90
2023-05-25T08:50:19.356Z,62.36
2023-05-25T08:52:52.001Z,61.91
2023-05-25T08:55:25.776Z,61.01
2023-05-25T08:58:00.149Z,58.70
2023-05-25T09:00:45.190Z,55.91
2023-05-25T09:04:31.053Z,55.85
2023-05-25T09:08:11.221Z,55.16
2023-05-25T09:11:49.217Z,53.76
2023-05-25T09:15:32.694Z,52.94
2023-05-25T09:19:04.610Z,48.82
2023-05-25T09:22:44.888Z,47.08
2023-05-25T09:26:47.682Z,46.57
2023-05-25T09:30:04.156Z,48.36
2023-05-25T09:32:33.835Z,48.30
2023-05-25T09:35:13.329Z,47.35
2023-05-25T09:37:43.068Z,47.63
2023-05-25T09:40:11.593Z,48.60
2023-05-25T09:42:39.705Z,48.55
2023-05-25T09:45:13.188Z,46.94
2023-05-25T09:47:41.268Z,48.86
2023-05-25T09:50:09.966Z,48.19
2023-05-25T09:52:38.755Z,45.84
2023-05-25T09:55:10.504Z,45.80
2023-05-25T09:57:39.311Z,46.64
2023-05-25T10:00:08.809Z,48.68
2023-05-25T10:02:37.068Z,47.76
2023-05-25T10:06:47.136Z,46.97
2023-05-25T10:09:16.913Z,47.20
2023-05-25T10:11:45.233Z,46.67
2023-05-25T10:14:17.471Z,46.09
2023-05-25T10:16:52.201Z,46.39
2023-05-25T10:19:28.699Z,48.15
2023-05-25T10:24:27.577Z,47.27
2023-05-25T10:27:05.448Z,47.67
2023-05-25T10:29:44.733Z,48.31
2023-05-25T10:32:13.774Z,47.76
2023-05-25T10:34:42.313Z,44.82
2023-05-25T10:37:11.452Z,43.05
2023-05-25T10:39:43.719Z,42.88
2023-05-25T10:42:13.293Z,41.75
2023-05-25T10:44:42.591Z,42.83
2023-05-25T10:48:16.410Z,46.76
2023-05-25T10:51:59.734Z,49.48
2023-05-25T10:55:58.036Z,50.74
2023-05-25T10:59:32.151Z,53.42
2023-05-25T11:02:59.082Z,55.51
2023-05-25T11:06:44.525Z,56.24
2023-05-25T11:09:32.339Z,56.65
2023-05-25T11:12:01.940Z,56.81
2023-05-25T11:14:31.727Z,56.12
2023-05-25T11:17:14.927Z,56.33
2023-05-25T11:19:43.652Z,56.78
2023-05-25T11:22:15.014Z,57.58
2023-05-25T11:24:45.286Z,57.35
2023-05-25T11:27:13.741Z,55.75
2023-05-25T11:29:43.140Z,56.12
2023-05-25T11:32:14.782Z,55.97
2023-05-25T11:34:46.918Z,55.68
2023-05-25T11:37:22.792Z,55.73
2023-05-25T11:39:52.439Z,54.56
2023-05-25T11:43:12.761Z,53.87
2023-05-25T11:45:44.878Z,52.90
2023-05-25T11:48:16.458Z,52.30
2023-05-25T11:50:44.837Z,50.76
2023-05-25T11:53:13.887Z,49.40
2023-05-25T11:55:57.718Z,47.35
2023-05-25T11:58:35.288Z,46.30
2023-05-25T12:01:14.053Z,44.78
2023-05-25T12:03:43.610Z,44.05
2023-05-25T12:06:25.647Z,41.93
2023-05-25T12:09:10.277Z,41.12
2023-05-25T12:11:38.928Z,39.41
2023-05-25T12:14:07.880Z,37.11
2023-05-25T12:16:39.086Z,36.14
2023-05-25T12:19:13.836Z,36.09
2023-05-25T12:21:42.308Z,36.48
2023-05-25T12:24:15.221Z,36.38
2023-05-25T12:26:51.683Z,36.98
2023-05-25T12:29:19.656Z,37.27
2023-05-25T12:31:47.582Z,36.08
2023-05-25T12:34:17.321Z,34.80
2023-05-25T12:36:50.733Z,33.60
2023-05-25T12:39:35.430Z,32.40
2023-05-25T12:42:13.301Z,31.81
2023-05-25T12:44:44.026Z,31.26
2023-05-25T12:47:32.457Z,31.50
2023-05-25T12:50:13.567Z,30.54
2023-05-25T12:53:01.848Z,30.34
2023-05-25T12:55:31.738Z,30.28
2023-05-25T12:58:05.566Z,30.27
2023-05-25T13:00:43.965Z,31.04
2023-05-25T13:03:11.999Z,30.96
2023-05-25T13:06:42.765Z,30.89
2023-05-25T13:29:01.368Z,34.44
2023-05-25T13:35:48.523Z,33.32
2023-05-25T13:39:16.578Z,31.76
2023-05-25T13:47:21.235Z,31.70
2023-05-25T13:49:49.698Z,33.74
2023-05-25T13:52:18.380Z,35.00
2023-05-25T13:55:22.128Z,36.11
2023-05-25T13:57:52.646Z,37.03
2023-05-25T14:01:05.827Z,36.05
2023-05-25T14:03:34.577Z,35.43
2023-05-25T14:06:05.138Z,37.60
2023-05-25T14:08:35.296Z,38.86
2023-05-25T14:11:05.303Z,40.05
2023-05-25T14:13:37.141Z,41.61
2023-05-25T14:16:05.501Z,43.20
2023-05-25T14:18:33.945Z,42.96
2023-05-25T14:21:02.149Z,41.54
2023-05-25T14:23:37.806Z,41.01
2023-05-25T14:26:07.123Z,41.18
2023-05-25T14:28:35.165Z,42.49
2023-05-25T14:31:03.306Z,43.06
2023-05-25T14:33:34.241Z,42.24
2023-05-25T14:36:02.211Z,42.33
2023-05-25T14:38:32.732Z,43.08
2023-05-25T14:41:01.114Z,42.78
2023-05-25T14:43:31.276Z,40.81
2023-05-25T14:46:03.256Z,38.49
2023-05-25T14:48:31.321Z,37.07
2023-05-25T14:51:02.968Z,36.57
2023-05-25T14:53:45.627Z,37.09
2023-05-25T14:56:14.608Z,38.32
2023-05-25T14:58:43.482Z,39.75
2023-05-25T15:01:13.747Z,38.93
2023-05-25T15:03:45.095Z,37.56
2023-05-25T15:06:15.651Z,36.48
2023-05-25T15:08:43.811Z,35.03
2023-05-25T15:11:14.082Z,35.39
2023-05-25T15:13:42.044Z,35.21
2023-05-25T15:16:17.156Z,33.92
2023-05-25T15:18:45.402Z,33.04
2023-05-25T15:21:13.308Z,32.82
2023-05-25T15:23:41.940Z,31.35
2023-05-25T15:26:11.726Z,30.69
2023-05-25T15:28:39.561Z,30.34
2023-05-25T15:31:07.512Z,30.22
2023-05-25T15:33:50.215Z,30.55
2023-05-25T15:36:22.220Z,31.45
2023-05-25T15:38:50.119Z,32.75
2023-05-25T15:41:18.874Z,32.72
2023-05-25T15:43:52.677Z,31.83
2023-05-25T15:46:21.745Z,31.93
2023-05-25T15:48:49.738Z,31.74
2023-05-25T15:51:17.590Z,31.89
2023-05-25T15:53:47.248Z,33.71
2023-05-25T15:56:15.099Z,36.05
2023-05-25T15:58:47.175Z,38.19
2023-05-25T16:01:15.366Z,39.84
2023-05-25T16:03:44.933Z,40.84
2023-05-25T16:06:12.987Z,42.25
2023-05-25T16:08:40.916Z,42.82
2023-05-25T16:11:09.095Z,43.32
2023-05-25T16:13:37.173Z,43.60
2023-05-25T16:16:05.755Z,44.26
2023-05-25T16:18:34.879Z,44.98
2023-05-25T16:21:15.633Z,45.96
2023-05-25T16:24:03.037Z,45.90
2023-05-25T16:26:58.905Z,45.89
2023-05-25T16:29:27.664Z,46.36
2023-05-25T16:31:56.850Z,46.80
2023-05-25T16:34:26.025Z,46.19
2023-05-25T16:36:54.046Z,46.65
2023-05-25T16:39:22.026Z,47.13
2023-05-25T16:41:51.043Z,47.21
2023-05-25T16:44:19.113Z,46.64
2023-05-25T16:46:47.513Z,46.78
2023-05-25T16:49:16.480Z,47.46
2023-05-25T16:51:44.764Z,46.88
2023-05-25T16:54:12.673Z,47.22
2023-05-25T16:56:40.972Z,47.62
2023-05-25T16:59:08.742Z,48.36
2023-05-25T17:01:36.893Z,48.49
2023-05-25T17:04:05.419Z,48.55
2023-05-25T17:06:34.067Z,48.77
2023-05-25T17:09:02.341Z,49.82
2023-05-25T17:11:30.194Z,49.53
2023-05-25T17:13:58.088Z,50.03
2023-05-25T17:16:26.029Z,49.88
2023-05-25T17:18:54.347Z,50.51
2023-05-25T17:21:22.696Z,50.65
2023-05-25T17:23:51.470Z,50.63
2023-05-25T17:26:19.715Z,50.97
2023-05-25T17:28:47.786Z,50.82
2023-05-25T17:31:20.968Z,51.29
2023-05-25T17:33:49.262Z,51.61
2023-05-25T17:36:17.636Z,51.56
2023-05-25T17:38:45.678Z,51.78
2023-05-25T17:41:13.993Z,51.42
2023-05-25T17:43:42.077Z,51.87
2023-05-25T17:46:10.295Z,51.72
2023-05-25T17:48:39.275Z,52.02
2023-05-25T17:51:07.949Z,52.61
2023-05-25T17:53:38.904Z,52.99
2023-05-25T17:56:07.265Z,53.40
2023-05-25T17:58:36.258Z,53.53
2023-05-25T18:01:04.782Z,53.70
2023-05-25T18:03:33.074Z,53.42
2023-05-25T18:06:01.308Z,53.82
2023-05-25T18:08:29.379Z,53.99
2023-05-25T18:10:57.571Z,53.79
2023-05-25T18:13:25.991Z,53.89
2023-05-25T18:15:54.815Z,54.05
2023-05-25T18:18:24.940Z,54.80
2023-05-25T18:20:53.124Z,54.81
2023-05-25T18:23:22.361Z,54.94
2023-05-25T18:25:50.543Z,55.08
2023-05-25T18:28:18.848Z,55.06
2023-05-25T18:30:50.603Z,55.55
2023-05-25T18:33:19.680Z,55.88
2023-05-25T18:35:47.791Z,56.03
2023-05-25T18:38:16.328Z,56.24
2023-05-25T18:40:45.040Z,56.44
2023-05-25T18:43:12.865Z,56.69
2023-05-25T18:45:42.103Z,56.43
2023-05-25T18:48:10.568Z,56.38
2023-05-25T18:50:41.889Z,56.84
2023-05-25T18:53:10.923Z,57.05
2023-05-25T18:55:39.344Z,57.44
2023-05-25T18:58:08.875Z,57.80
2023-05-25T19:00:38.806Z,58.04
2023-05-25T19:03:06.935Z,58.31
2023-05-25T19:05:35.810Z,58.68
2023-05-25T19:08:05.145Z,59.15
2023-05-25T19:10:35.476Z,59.52
2023-05-25T19:13:04.042Z,59.98
2023-05-25T19:15:32.336Z,60.41
2023-05-25T19:18:03.624Z,60.99
2023-05-25T19:20:32.878Z,61.66
2023-05-25T19:23:00.914Z,61.79
2023-05-25T19:25:29.220Z,61.94
2023-05-25T19:27:58.699Z,61.80
2023-05-25T19:30:26.684Z,61.67
2023-05-25T19:32:56.018Z,61.82
2023-05-25T19:35:25.061Z,61.86
2023-05-25T19:37:54.334Z,62.07
2023-05-25T19:40:24.149Z,62.62
2023-05-25T19:42:52.421Z,62.98
2023-05-25T19:45:21.709Z,63.38
2023-05-25T19:47:49.728Z,63.43
2023-05-25T19:50:18.884Z,63.31
2023-05-25T19:52:47.855Z,63.83
2023-05-25T19:55:16.150Z,64.01
2023-05-25T19:57:44.413Z,64.52
2023-05-25T20:00:21.315Z,64.96
2023-05-25T20:02:54.654Z,65.36
2023-05-25T20:05:24.860Z,65.83
2023-05-25T20:07:52.927Z,66.05
2023-05-25T20:10:22.142Z,66.45
2023-05-25T20:12:51.070Z,66.84
2023-05-25T20:15:20.598Z,67.33
2023-05-25T20:17:48.684Z,67.79
2023-05-25T20:20:17.968Z,68.04
2023-05-25T20:22:47.990Z,68.24
2023-05-25T20:25:16.952Z,68.55
2023-05-25T20:27:45.118Z,68.85
2023-05-25T20:30:14.340Z,69.18
2023-05-25T20:32:44.689Z,69.25
2023-05-25T20:35:13.513Z,69.46
2023-05-25T20:37:42.069Z,69.76
2023-05-25T20:40:12.058Z,69.73
2023-05-25T20:42:40.854Z,69.67
2023-05-25T20:45:09.850Z,69.69
2023-05-25T20:47:45.028Z,69.81
2023-05-25T20:50:12.907Z,70.08
2023-05-25T20:52:41.694Z,69.72
2023-05-25T20:55:09.471Z,69.88
2023-05-25T20:57:37.338Z,69.58
2023-05-25T21:00:05.733Z,69.75
2023-05-25T21:02:33.807Z,69.98
2023-05-25T21:05:01.725Z,70.14
2023-05-25T21:07:29.598Z,70.61
2023-05-25T21:09:59.622Z,71.23
2023-05-25T21:12:27.490Z,71.57
2023-05-25T21:14:55.802Z,71.70
2023-05-25T21:17:24.232Z,71.94
2023-05-25T21:19:52.118Z,72.55
2023-05-25T21:22:20.416Z,72.94
2023-05-25T21:24:48.566Z,73.05
2023-05-25T21:27:17.759Z,73.39
2023-05-25T21:29:45.614Z,73.90
2023-05-25T21:32:13.420Z,74.35
2023-05-25T21:34:41.195Z,74.93
2023-05-25T21:37:09.090Z,75.27
2023-05-25T21:39:37.046Z,75.62
2023-05-25T21:42:05.403Z,75.85
2023-05-25T21:44:33.191Z,76.15
2023-05-25T21:47:01.115Z,76.35
2023-05-25T21:49:28.983Z,76.79
2023-05-25T21:51:57.574Z,77.08
2023-05-25T21:54:25.536Z,77.13
2023-05-25T21:56:53.923Z,77.38
2023-05-25T21:59:21.775Z,77.55
2023-05-25T22:01:49.708Z,77.83
2023-05-25T22:04:17.655Z,78.07
2023-05-25T22:06:45.578Z,78.13
2023-05-25T22:09:13.421Z,78.43
2023-05-25T22:11:41.654Z,78.31
2023-05-25T22:14:10.734Z,78.42
2023-05-25T22:16:38.676Z,78.46
2023-05-25T22:19:06.587Z,78.66
2023-05-25T22:21:34.426Z,78.73
2023-05-25T22:24:02.207Z,78.90
2023-05-25T22:26:30.378Z,78.74
2023-05-25T22:28:58.396Z,79.04
2023-05-25T22:31:27.925Z,79.09
2023-05-25T22:33:55.826Z,79.38
2023-05-25T22:36:23.826Z,79.41
2023-05-25T22:38:51.660Z,79.63
2023-05-25T22:41:19.420Z,79.56
2023-05-25T22:43:47.353Z,79.67
2023-05-25T22:46:17.352Z,79.68
2023-05-25T22:48:45.364Z,79.75
2023-05-25T22:51:13.151Z,79.82
2023-05-25T22:53:41.257Z,79.80
2023-05-25T22:56:09.146Z,79.72
2023-05-25T22:58:37.307Z,79.48
2023-05-25T23:01:05.225Z,79.18
2023-05-25T23:03:33.152Z,79.08
2023-05-25T23:06:01.020Z,79.19
2023-05-25T23:08:29.000Z,79.23
2023-05-25T23:10:56.879Z,79.42
2023-05-25T23:13:24.865Z,79.14
2023-05-25T23:15:55.280Z,79.25
2023-05-25T23:18:23.222Z,79.32
2023-05-25T23:20:51.211Z,79.38
2023-05-25T23:23:19.052Z,79.17
2023-05-25T23:25:47.215Z,78.78
2023-05-25T23:28:15.134Z,78.40
2023-05-25T23:30:42.891Z,77.87
2023-05-25T23:33:10.733Z,77.35
2023-05-25T23:35:38.531Z,76.79
2023-05-25T23:38:06.349Z,75.61
2023-05-25T23:40:34.661Z,74.86
2023-05-25T23:43:02.530Z,73.77
2023-05-25T23:45:30.346Z,73.20
2023-05-25T23:47:58.418Z,73.50
2023-05-25T23:50:26.515Z,72.97
2023-05-25T23:52:54.374Z,72.93
2023-05-25T23:55:22.354Z,72.52
2023-05-25T23:57:50.325Z,72.50
